Terminal Aerodrome Forecast
Issued by NWS

Home | Current Version | Previous Version | Text Only | Print | Product List | Glossary On
Versions: 1 2 3 4 5 6 7 8 9 10 11 12 13 14 15 16 17 18 19 20 21 22 23 24 25 26 27 28 29
000
FTUS41 KOKX 271430 AAA
TAFHPN
TAF AMD
KHPN 271430Z 2715/2812 23008KT P6SM FEW120
     FM271600 23011G18KT P6SM SCT070 BKN100
     FM272200 21007KT P6SM BKN100
     FM280200 VRB03KT P6SM BKN080
     FM280800 VRB02KT P6SM SCT004 OVC080
      AMD NOT SKED=

USA.gov is the U.S. government's official web portal to all federal, state and local government web resources and services.